Hit Tracker is now ESPN Home Run Tracker! Hit Tracker founder Greg Rybarczyk is now collaborating with the ESPN Stats & Information Group to continue tracking all MLB home runs, and helping baseball fans know "How Far It Really Went!™" Please credit any information on this site to ESPN Stats & Information Group. For more information and analysis on home runs, please contact founder Greg Rybarczyk. E-Mail ESPN Home Run Tracker
Main Page | Ballparks | Park Overlays | Glossary | Highlight Homers | Feedback | Bio | 3 Types of HR's | AAA Home Run Derby Last Updated: September 1, 2015, 11:10 pm PST
Welcome to the ESPN Home Run Tracker! Check out the ESPN MLB Scoreboard throughout the 2015 season! Contact us at grybar@hittrackeronline.com.
Season:
Ballpark detail for Marlins Park
Ballpark # of Home Runs HR per game Avg.
True
Distance
Avg.
Speed
Off
Bat
Avg.
Std.
Dist.
Marlins Park 85 1.29 398.6 104.6 398.1

Scatter Plot of Home Runs Marlins Park
 Overlay Ballpark:
Without range rings   With range rings

2015 Season Home Runs for Marlins Park
Click headers to sort
Date Video Path Hitter Hitter
Team
Pitcher Pitcher
Team
INN Ballpark Type/
Luck
True
Dist.
Speed
Off
Bat
Elev.
Angle
Horiz.
Angle
Apex Impact Due To: Std.
Dist.
#
Parks
Wind Temp. ^ Alt.
07/29/15 Video View Harper, Bryce WSH Dyson, Sam MIA 8 Marlins Park ND 420 109.0 34.0 71.0 139 0 3 0 417 30
05/15/15 Video View Stanton, Giancarlo MIA Teheran, Julio ATL 3 Marlins Park PL 392 105.0 36.0 108.3 143 0 2 0 390 30
05/19/15 Video View Stanton, Giancarlo MIA Hellickson, Jeremy ARI 6 Marlins Park PL 403 107.3 32.7 103.5 141 -23 2 0 423 30
06/25/15 Video View Hechavarria, Adeiny MIA Villanueva, Carlos STL 9 Marlins Park PL 358 98.7 36.6 119.4 116 0 2 0 356 29
06/26/15 Video View Van Slyke, Scott LAD Nicolino, Justin MIA 2 Marlins Park JE/L 363 100.2 37.7 110.5 136 0 2 0 361 20
07/29/15 Video View Harper, Bryce WSH Koehler, Tom MIA 5 Marlins Park PL 395 102.5 33.6 72.0 121 0 2 0 393 30
08/12/15 Video View Ortiz, David BOS Conley, Adam MIA 2 Marlins Park ND 432 110.6 31.8 68.8 125 0 2 0 430 30
08/20/15 Video View Ozuna, Marcell MIA Williams, Jerome PHI 2 Marlins Park ND 412 109.0 33.2 121.1 117 0 2 0 410 30
05/16/15 Video View Peterson, Jace ATL Latos, Mat MIA 2 Marlins Park PL 416 105.9 25.7 76.6 83 0 1 0 416 29
04/26/15 Video View Harper, Bryce WSH Haren, Dan MIA 2 Marlins Park PL 368 97.2 32.0 69.1 96 0 1 0 367 21
04/29/15 Video View Cuddyer, Michael NYM Latos, Mat MIA 1 Marlins Park PL 411 103.8 31.4 103.5 116 0 1 0 411 30
04/29/15 Video View Stanton, Giancarlo MIA Colon, Bartolo NYM 1 Marlins Park ND 408 106.9 31.8 116.9 109 0 1 0 407 30
05/01/15 Video View Utley, Chase PHI Koehler, Tom MIA 4 Marlins Park PL 374 98.7 32.0 66.7 97 0 1 0 372 27
04/08/15 Video View Pierzynski, A.J. ATL Koehler, Tom MIA 7 Marlins Park JE 365 97.2 30.2 67.4 85 0 1 0 365 21
04/10/15 Video View Kiermaier, Kevin TB Haren, Dan MIA 4 Marlins Park PL 372 102.7 27.3 57.6 71 0 1 0 371 30
04/11/15 Video View Beckham, Tim TB Dunn, Mike MIA 7 Marlins Park ND 430 107.7 27.0 103.9 95 0 1 0 429 30
04/12/15 Video View DeJesus, David TB Alvarez, Henderson MIA 5 Marlins Park JE 360 96.2 34.7 69.3 109 0 1 0 359 16
04/12/15 Video View Saltalamacchia, Jarrod MIA Frieri, Ernesto TB 9 Marlins Park PL 421 103.8 29.4 81.9 109 0 1 0 420 29
04/25/15 Video View Stanton, Giancarlo MIA Martin, Rafael WSH 8 Marlins Park PL 419 105.9 31.5 104.8 120 0 1 0 419 30
06/01/15 Video View Castro, Starlin CHC Morris, Bryan MIA 8 Marlins Park PL 420 106.5 26.8 105.4 89 0 1 0 419 30
06/03/15 Video View Stanton, Giancarlo MIA Lester, Jon CHC 5 Marlins Park PL 397 105.1 36.5 101.0 154 0 1 0 396 30
06/03/15 Video View Baker, Jeff MIA Lester, Jon CHC 5 Marlins Park ND 403 106.3 31.7 119.6 104 0 1 0 402 30
06/03/15 Video View Lake, Junior CHC Haren, Dan MIA 6 Marlins Park ND 410 107.2 32.3 115.5 114 0 1 0 410 30
06/12/15 Video View Prado, Martin MIA Kendrick, Kyle COL 6 Marlins Park PL 380 99.1 32.7 109.2 106 0 1 0 378 28
06/12/15 Video View Gonzalez, Carlos COL Urena, Jose MIA 7 Marlins Park JE 384 100.2 27.2 106.1 79 0 1 0 384 23
06/12/15 Video View Realmuto, J.T. MIA Oberg, Scott COL 8 Marlins Park JE 381 100.9 27.7 111.1 79 0 1 0 380 29
06/14/15 Video View Blackmon, Charlie COL Haren, Dan MIA 1 Marlins Park PL 363 101.2 27.1 57.2 68 0 1 0 363 29
06/14/15 Video View Arenado, Nolan COL Haren, Dan MIA 1 Marlins Park PL 411 106.9 24.9 106.3 76 0 1 0 410 30
06/15/15 Video View Teixeira, Mark NYY Koehler, Tom MIA 2 Marlins Park PL 429 105.5 28.5 81.2 106 0 1 0 428 30
06/23/15 Video View Heyward, Jason STL Urena, Jose MIA 4 Marlins Park ND 419 106.7 27.2 72.9 90 0 1 0 418 30
06/23/15 Video View Stanton, Giancarlo MIA Martinez, Carlos STL 1 Marlins Park ND 484 117.3 25.2 101.3 103 0 1 0 482 30
06/24/15 Video View Wong, Kolten STL Latos, Mat MIA 3 Marlins Park ND 405 108.9 25.8 62.5 74 0 1 0 404 30
06/24/15 Video View Heyward, Jason STL Latos, Mat MIA 7 Marlins Park JE 360 98.3 29.1 61.2 76 0 1 0 360 26
06/30/15 Video View Posey, Buster SF Latos, Mat MIA 3 Marlins Park PL 385 99.9 31.3 108.7 100 0 1 0 384 30
06/30/15 Video View Bour, Justin MIA Vogelsong, Ryan SF 3 Marlins Park ND 417 105.8 29.8 72.5 105 0 1 0 416 30
07/02/15 Video View Blanco, Gregor SF Fernandez, Jose MIA 5 Marlins Park ND 394 104.7 34.5 66.3 125 0 1 0 393 30
07/02/15 Video View Fernandez, Jose MIA Cain, Matt SF 5 Marlins Park PL 396 103.5 34.5 107.1 130 0 1 0 395 30
07/02/15 Video View Bour, Justin MIA Cain, Matt SF 5 Marlins Park PL 411 104.9 32.4 74.1 122 0 1 0 410 30
07/10/15 Video View Bruce, Jay CIN Phelps, David MIA 2 Marlins Park ND 400 106.5 27.5 62.1 80 0 1 0 399 30
07/11/15 Video View Realmuto, J.T. MIA Villarreal, Pedro CIN 7 Marlins Park PL 377 99.4 34.0 109.9 114 0 1 0 376 28
07/29/15 Video View Taylor, Michael WSH Dyson, Sam MIA 8 Marlins Park PL 381 100.8 29.3 65.9 85 0 1 0 379 29
08/02/15 Video View Amarista, Alexi SD Ramos, A.J. MIA 9 Marlins Park JE 351 95.5 32.6 61.0 89 0 1 0 350 24
08/05/15 Video View Uribe, Juan NYM Phelps, David MIA 5 Marlins Park ND 436 111.7 24.2 105.3 80 0 1 0 435 30
08/20/15 Video View Prado, Martin MIA Williams, Jerome PHI 2 Marlins Park PL 398 105.3 26.8 113.4 78 0 1 0 397 30
08/20/15 Video View Asche, Cody PHI Ramos, A.J. MIA 9 Marlins Park ND 390 103.3 31.2 61.5 96 0 1 0 389 30
08/21/15 Video View Dietrich, Derek MIA Gomez, Jeanmar PHI 7 Marlins Park JE 369 102.4 24.7 65.5 62 0 1 0 368 19
08/22/15 Video View Sweeney, Darnell PHI Nicolino, Justin MIA 8 Marlins Park PL 433 107.5 25.1 98.9 87 0 1 0 432 30
08/22/15 Video View Altherr, Aaron PHI Ramos, A.J. MIA 9 Marlins Park PL 378 100.5 30.6 116.5 89 0 1 0 377 30
08/23/15 Video View Rupp, Cameron PHI Narveson, Chris MIA 7 Marlins Park PL 365 99.4 35.3 59.6 109 0 1 0 363 30
08/26/15 Video View McCutchen, Andrew PIT Narveson, Chris MIA 2 Marlins Park ND 418 107.3 27.0 109.0 87 0 1 0 417 30
05/15/15 Video View Stanton, Giancarlo MIA Martin, Cody ATL 7 Marlins Park ND 474 116.1 21.0 92.4 81 0 0 0 474 30
05/16/15 Video View Stanton, Giancarlo MIA Wood, Alex ATL 3 Marlins Park ND 475 114.6 22.4 90.8 88 0 0 0 475 30
05/18/15 Video View Realmuto, J.T. MIA De La Rosa, Rubby ARI 7 Marlins Park JE 381 106.7 24.1 118.3 62 0 0 0 381 30
05/19/15 Video View Pollock, A.J. ARI Dunn, Mike MIA 8 Marlins Park JE 366 104.1 25.1 124.4 61 0 0 0 366 29
04/27/15 Video View Murphy, Daniel NYM Cishek, Steve MIA 9 Marlins Park PL 423 107.4 24.4 78.9 80 0 0 0 423 29
04/29/15 Video View Suzuki, Ichiro MIA Torres, Alex NYM 8 Marlins Park PL 360 97.1 32.1 62.5 91 0 0 0 360 26
05/02/15 Video View Prado, Martin MIA Hamels, Cole PHI 2 Marlins Park PL 395 104.0 32.4 115.3 109 0 0 0 395 30
04/25/15 Video View Hechavarria, Adeiny MIA Martin, Rafael WSH 8 Marlins Park PL 393 104.5 28.7 117.6 85 0 0 0 393 30
05/22/15 Video View Bour, Justin MIA Brach, Brad BAL 9 Marlins Park JE 404 103.1 25.2 100.0 79 0 0 0 404 26
05/24/15 Video View Prado, Martin MIA Gonzalez, Miguel BAL 5 Marlins Park JE 407 104.6 23.9 99.6 74 0 0 0 407 25
06/02/15 Video View Stanton, Giancarlo MIA Rosscup, Zac CHC 7 Marlins Park PL 412 103.0 31.7 80.3 119 0 0 0 411 29
06/11/15 Video View Stanton, Giancarlo MIA Rusin, Chris COL 1 Marlins Park JE 371 106.6 23.7 122.9 58 0 0 0 371 29
06/11/15 Video View Baker, Jeff MIA Rusin, Chris COL 5 Marlins Park JE 405 105.3 23.1 100.1 70 0 0 0 405 24
06/13/15 Video View Stanton, Giancarlo MIA Hale, David COL 6 Marlins Park PL 377 102.2 35.3 117.5 119 0 0 0 377 30
06/15/15 Video View Dietrich, Derek MIA Tanaka, Masahiro NYY 7 Marlins Park PL 382 102.2 31.0 59.6 91 0 0 0 381 30
06/16/15 Video View Stanton, Giancarlo MIA Martin, Chris NYY 5 Marlins Park PL 387 102.1 30.3 65.2 92 0 0 0 387 30
06/24/15 Video View Stanton, Giancarlo MIA Garcia, Jaime STL 2 Marlins Park JE 448 116.0 17.9 89.9 60 0 0 0 448 28
06/27/15 Video View Turner, Justin LAD Koehler, Tom MIA 1 Marlins Park PL 404 104.8 24.6 103.3 74 0 0 0 404 30
06/30/15 Video View Gordon, Dee MIA Vogelsong, Ryan SF 2 Marlins Park ITP/L 353 99.2 20.4 83.4 49 0 0 0 354 0
07/01/15 Video View Crawford, Brandon SF Haren, Dan MIA 6 Marlins Park JE 410 104.6 25.1 79.0 79 0 0 0 410 28
07/01/15 Video View Bour, Justin MIA Casilla, Santiago SF 9 Marlins Park PL 396 108.6 24.1 64.7 65 0 0 0 396 30
07/02/15 Video View Posey, Buster SF Capps, Carter MIA 8 Marlins Park JE 410 103.9 24.5 98.1 78 0 0 0 409 24
07/11/15 Video View Suarez, Eugenio CIN Conley, Adam MIA 2 Marlins Park JE 376 106.0 23.3 115.3 58 0 0 0 376 26
07/11/15 Video View Gillespie, Cole MIA Iglesias, Raisel CIN 5 Marlins Park PL 418 108.6 22.6 101.0 70 0 0 0 418 30
07/30/15 Video View Zimmerman, Ryan WSH Haren, Dan MIA 2 Marlins Park PL 418 108.3 23.9 104.3 74 0 0 0 418 30
07/31/15 Video View Yelich, Christian MIA Kennedy, Ian SD 1 Marlins Park JE 444 107.4 25.9 92.0 98 0 0 0 444 30
07/31/15 Video View Dietrich, Derek MIA Kimbrel, Craig SD 9 Marlins Park PL 381 101.2 31.8 63.1 97 0 0 0 381 29
08/02/15 Video View Hechavarria, Adeiny MIA Maurer, Brandon SD 9 Marlins Park JE 415 105.7 22.9 96.6 72 0 0 0 414 24
08/03/15 Video View Conforto, Michael NYM Koehler, Tom MIA 2 Marlins Park PL 433 110.0 22.1 82.6 73 0 0 0 432 29
08/12/15 Video View Gordon, Dee MIA Rodriguez, Eduardo BOS 1 Marlins Park JE 369 105.6 22.8 64.4 55 0 0 0 369 17
08/12/15 Video View Realmuto, J.T. MIA Ross, Robbie BOS 6 Marlins Park JE 379 102.2 26.2 112.9 71 0 0 0 378 28
08/12/15 Video View Ortiz, David BOS Narveson, Chris MIA 7 Marlins Park JE 378 109.0 21.8 64.2 54 0 0 0 378 24
08/22/15 Video View Ruf, Darin PHI Ramos, A.J. MIA 9 Marlins Park JE 356 101.3 26.0 124.2 62 0 0 0 356 26
08/26/15 Video View Prado, Martin MIA Locke, Jeff PIT 1 Marlins Park JE 368 98.1 30.0 113.7 84 0 0 0 368 23
08/27/15 Video View Alvarez, Pedro PIT Nicolino, Justin MIA 4 Marlins Park JE 445 111.2 20.9 89.7 73 0 0 0 444 30


About HitTracker | Contact Us
© 2006-2015 HitTrackerOnline